createdAt,value
2018-04-29T00:01:25.975Z,80.03
2018-04-29T00:03:51.768Z,79.75
2018-04-29T00:06:17.575Z,79.72
2018-04-29T00:08:43.392Z,81.39
2018-04-29T00:11:09.194Z,80.98
2018-04-29T00:13:34.994Z,80.05
2018-04-29T00:16:00.800Z,79.61
2018-04-29T00:18:26.596Z,80.28
2018-04-29T00:20:52.402Z,80.90
2018-04-29T00:23:18.237Z,80.95
2018-04-29T00:25:44.018Z,79.60
2018-04-29T00:28:09.792Z,80.34
2018-04-29T00:30:35.621Z,80.03
2018-04-29T00:33:01.409Z,80.44
2018-04-29T00:35:27.196Z,80.07
2018-04-29T00:37:52.984Z,79.98
2018-04-29T00:40:18.772Z,79.59
2018-04-29T00:42:44.573Z,80.41
2018-04-29T00:45:10.398Z,79.99
2018-04-29T00:47:36.176Z,79.10
2018-04-29T00:50:01.994Z,79.36
2018-04-29T00:52:27.790Z,80.45
2018-04-29T00:54:53.569Z,81.57
2018-04-29T00:57:19.365Z,82.15
2018-04-29T00:59:45.200Z,81.52
2018-04-29T01:02:11.089Z,80.75
2018-04-29T01:04:36.892Z,81.16
2018-04-29T01:07:02.705Z,80.17
2018-04-29T01:09:28.501Z,81.03
2018-04-29T01:11:54.429Z,82.04
2018-04-29T01:14:20.213Z,83.53
2018-04-29T01:16:46.009Z,83.32
2018-04-29T01:19:11.818Z,82.25
2018-04-29T01:21:37.595Z,81.78
2018-04-29T01:24:03.389Z,80.85
2018-04-29T01:26:29.181Z,80.94
2018-04-29T01:28:54.976Z,80.04
2018-04-29T01:31:20.757Z,81.66
2018-04-29T01:33:46.577Z,81.47
2018-04-29T01:36:12.355Z,81.85
2018-04-29T01:38:38.142Z,82.79
2018-04-29T01:41:03.965Z,83.62
2018-04-29T01:43:29.745Z,83.39
2018-04-29T01:45:55.540Z,84.28
2018-04-29T01:48:21.576Z,83.04
2018-04-29T01:50:47.389Z,81.29
2018-04-29T01:53:13.175Z,81.16
2018-04-29T01:55:39.121Z,80.45
2018-04-29T01:58:04.927Z,79.97
2018-04-29T02:00:30.711Z,80.70
2018-04-29T02:02:56.529Z,82.12
2018-04-29T02:05:22.325Z,82.57
2018-04-29T02:07:48.303Z,83.40
2018-04-29T02:10:14.094Z,84.34
2018-04-29T02:12:39.882Z,84.75
2018-04-29T02:15:05.686Z,84.18
2018-04-29T02:17:31.480Z,84.77
2018-04-29T02:19:57.253Z,84.70
2018-04-29T02:22:23.053Z,85.37
2018-04-29T02:24:48.864Z,84.64
2018-04-29T02:27:14.652Z,84.13
2018-04-29T02:29:40.427Z,83.82
2018-04-29T02:32:06.305Z,83.93
2018-04-29T02:34:32.084Z,83.55
2018-04-29T02:36:57.873Z,82.89
2018-04-29T02:39:23.686Z,81.97
2018-04-29T02:41:49.461Z,83.11
2018-04-29T02:44:15.231Z,83.83
2018-04-29T02:46:41.052Z,85.00
2018-04-29T02:49:06.840Z,83.24
2018-04-29T02:51:32.614Z,84.16
2018-04-29T02:53:58.409Z,85.14
2018-04-29T02:56:24.199Z,85.82
2018-04-29T02:58:49.988Z,85.98
2018-04-29T03:01:15.795Z,85.54
2018-04-29T03:03:41.570Z,86.47
2018-04-29T03:06:07.493Z,87.21
2018-04-29T03:08:33.275Z,85.69
2018-04-29T03:10:59.057Z,85.44
2018-04-29T03:13:24.842Z,83.82
2018-04-29T03:15:50.613Z,84.93
2018-04-29T03:18:16.408Z,83.78
2018-04-29T03:20:42.181Z,84.89
2018-04-29T03:23:08.000Z,86.26
2018-04-29T03:25:33.785Z,86.96
2018-04-29T03:27:59.590Z,87.37
2018-04-29T03:30:25.397Z,87.96
2018-04-29T03:32:51.181Z,87.64
2018-04-29T03:35:16.949Z,87.26
2018-04-29T03:37:42.782Z,87.32
2018-04-29T03:40:08.561Z,87.04
2018-04-29T03:42:34.358Z,85.72
2018-04-29T03:45:00.173Z,85.33
2018-04-29T03:47:25.950Z,86.85
2018-04-29T03:49:51.773Z,85.65
2018-04-29T03:52:17.574Z,86.73
2018-04-29T03:54:43.341Z,86.86
2018-04-29T04:00:17.106Z,87.34
2018-04-29T04:02:55.419Z,87.72
2018-04-29T04:05:21.201Z,85.70
2018-04-29T04:07:46.981Z,85.53
2018-04-29T04:10:12.772Z,85.92
2018-04-29T04:12:38.549Z,86.95
2018-04-29T04:15:04.325Z,85.99
2018-04-29T04:17:30.122Z,86.63
2018-04-29T04:19:55.900Z,84.37
2018-04-29T04:22:21.676Z,83.71
2018-04-29T04:24:47.473Z,85.71
2018-04-29T04:27:13.252Z,87.45
2018-04-29T04:29:39.061Z,87.90
2018-04-29T04:32:04.937Z,87.90
2018-04-29T04:34:30.702Z,87.66
2018-04-29T04:36:56.488Z,84.94
2018-04-29T04:39:22.292Z,86.17
2018-04-29T04:41:48.066Z,85.15
2018-04-29T04:44:13.841Z,84.83
2018-04-29T04:46:39.621Z,84.85
2018-04-29T04:49:05.404Z,83.75
2018-04-29T04:51:31.287Z,84.80
2018-04-29T04:53:57.078Z,86.21
2018-04-29T04:56:22.865Z,85.70
2018-04-29T04:58:48.699Z,86.71
2018-04-29T05:01:14.479Z,87.47
2018-04-29T05:03:40.266Z,85.55
2018-04-29T05:06:06.072Z,87.13
2018-04-29T05:08:31.846Z,87.22
2018-04-29T05:10:57.641Z,86.44
2018-04-29T05:13:23.442Z,86.93
2018-04-29T05:15:49.234Z,87.54
2018-04-29T05:18:15.021Z,86.75
2018-04-29T05:20:40.909Z,88.01
2018-04-29T05:23:06.680Z,88.68
2018-04-29T05:25:32.458Z,87.18
2018-04-29T05:27:58.265Z,87.11
2018-04-29T05:30:24.064Z,86.68
2018-04-29T05:32:49.855Z,86.11
2018-04-29T05:35:15.676Z,86.94
2018-04-29T05:37:41.422Z,86.65
2018-04-29T05:40:07.239Z,86.09
2018-04-29T05:42:33.057Z,85.99
2018-04-29T05:44:58.842Z,85.28
2018-04-29T05:47:24.622Z,85.02
2018-04-29T05:49:50.484Z,84.81
2018-04-29T05:52:16.193Z,84.52
2018-04-29T05:54:41.985Z,83.54
2018-04-29T05:57:07.758Z,82.20
2018-04-29T05:59:33.544Z,82.76
2018-04-29T06:01:59.379Z,82.43
2018-04-29T06:04:25.157Z,81.81
2018-04-29T06:06:50.958Z,81.20
2018-04-29T06:09:16.765Z,81.45
2018-04-29T06:11:42.562Z,81.32
2018-04-29T06:14:08.394Z,81.11
2018-04-29T06:16:34.169Z,79.09
2018-04-29T06:18:59.949Z,79.80
2018-04-29T06:21:25.729Z,80.15
2018-04-29T06:23:51.833Z,80.54
2018-04-29T06:26:17.720Z,77.24
2018-04-29T06:28:43.441Z,75.99
2018-04-29T06:31:09.262Z,75.60
2018-04-29T06:33:35.043Z,75.89
2018-04-29T06:36:00.824Z,75.90
2018-04-29T06:38:26.632Z,76.05
2018-04-29T06:40:52.406Z,76.08
2018-04-29T06:43:18.197Z,75.79
2018-04-29T06:45:44.018Z,73.06
2018-04-29T06:48:09.818Z,73.42
2018-04-29T06:50:35.600Z,73.19
2018-04-29T06:53:01.411Z,73.11
2018-04-29T06:55:27.203Z,72.61
2018-04-29T06:57:52.988Z,73.77
2018-04-29T07:00:18.774Z,72.34
2018-04-29T07:02:44.575Z,71.84
2018-04-29T07:05:10.354Z,73.33
2018-04-29T07:07:36.126Z,74.24
2018-04-29T07:10:02.140Z,72.59
2018-04-29T07:12:27.931Z,72.56
2018-04-29T07:14:53.707Z,73.40
2018-04-29T07:17:19.522Z,72.10
2018-04-29T07:19:45.342Z,72.89
2018-04-29T07:22:12.009Z,72.66
2018-04-29T07:24:37.946Z,71.74
2018-04-29T07:27:03.785Z,71.73
2018-04-29T07:29:29.585Z,72.06
2018-04-29T07:31:55.386Z,72.86
2018-04-29T07:34:21.485Z,77.62
2018-04-29T07:36:47.833Z,71.29
2018-04-29T07:39:13.789Z,81.26
2018-04-29T07:41:39.602Z,71.04
2018-04-29T07:44:05.408Z,72.27
2018-04-29T07:46:31.248Z,68.96
2018-04-29T07:48:56.995Z,67.29
2018-04-29T07:51:22.781Z,69.34
2018-04-29T07:53:48.605Z,70.24
2018-04-29T07:56:14.422Z,65.66
2018-04-29T07:58:40.222Z,65.98
2018-04-29T08:01:06.026Z,66.27
2018-04-29T08:03:31.813Z,67.28
2018-04-29T08:05:57.609Z,66.50
2018-04-29T08:08:23.392Z,64.88
2018-04-29T08:10:49.224Z,66.95
2018-04-29T08:13:15.016Z,67.10
2018-04-29T08:15:40.868Z,64.81
2018-04-29T08:18:06.655Z,62.83
2018-04-29T08:20:32.475Z,63.58
2018-04-29T08:22:58.261Z,66.25
2018-04-29T08:25:24.049Z,64.39
2018-04-29T08:27:49.850Z,64.18
2018-04-29T08:30:15.667Z,63.71
2018-04-29T08:32:41.450Z,65.04
2018-04-29T08:35:07.241Z,65.00
2018-04-29T08:37:33.053Z,64.12
2018-04-29T08:39:58.856Z,63.43
2018-04-29T08:42:24.647Z,64.28
2018-04-29T08:44:50.528Z,64.67
2018-04-29T08:47:16.393Z,65.77
2018-04-29T08:49:42.206Z,65.24
2018-04-29T08:52:07.995Z,64.38
2018-04-29T08:54:33.814Z,64.35
2018-04-29T08:56:59.711Z,64.12
2018-04-29T08:59:25.501Z,62.77
2018-04-29T09:01:51.296Z,61.88
2018-04-29T09:04:17.102Z,62.88
2018-04-29T09:06:42.886Z,62.10
2018-04-29T09:09:08.774Z,62.73
2018-04-29T09:11:34.771Z,61.65
2018-04-29T09:14:00.852Z,62.29
2018-04-29T09:16:26.645Z,63.70
2018-04-29T09:18:52.453Z,63.16
2018-04-29T09:21:18.230Z,61.61
2018-04-29T09:23:44.018Z,60.64
2018-04-29T09:26:09.805Z,61.16
2018-04-29T09:28:35.785Z,59.79
2018-04-29T09:31:01.606Z,59.67
2018-04-29T09:33:27.407Z,58.76
2018-04-29T09:35:53.214Z,58.34
2018-04-29T09:38:19.000Z,57.69
2018-04-29T09:40:44.852Z,57.89
2018-04-29T09:43:10.653Z,58.67
2018-04-29T09:45:36.441Z,57.04
2018-04-29T09:48:02.265Z,58.21
2018-04-29T09:50:28.052Z,55.55
2018-04-29T09:52:53.841Z,55.55
2018-04-29T09:55:20.020Z,56.84
2018-04-29T09:57:45.828Z,55.93
2018-04-29T10:00:11.645Z,55.26
2018-04-29T10:02:43.617Z,53.31
2018-04-29T10:05:09.433Z,52.95
2018-04-29T10:07:35.222Z,52.51
2018-04-29T10:10:01.024Z,51.18
2018-04-29T10:12:27.261Z,52.91
2018-04-29T10:14:53.051Z,53.04
2018-04-29T10:17:18.842Z,52.37
2018-04-29T10:19:44.638Z,53.11
2018-04-29T10:22:10.432Z,52.59
2018-04-29T10:24:36.296Z,52.67
2018-04-29T10:27:02.045Z,50.21
2018-04-29T10:29:27.837Z,49.79
2018-04-29T10:31:53.633Z,49.02
2018-04-29T10:34:19.472Z,49.20
2018-04-29T10:36:45.250Z,49.10
2018-04-29T10:39:11.052Z,50.08
2018-04-29T10:41:36.845Z,48.66
2018-04-29T10:44:02.632Z,48.61
2018-04-29T10:46:28.422Z,47.68
2018-04-29T10:48:54.216Z,49.37
2018-04-29T10:51:20.340Z,49.50
2018-04-29T10:53:46.130Z,48.71
2018-04-29T10:56:11.934Z,49.01
2018-04-29T10:58:37.752Z,51.13
2018-04-29T11:01:03.719Z,51.34
2018-04-29T11:03:29.503Z,51.99
2018-04-29T11:05:55.285Z,51.43
2018-04-29T11:08:21.285Z,50.93
2018-04-29T11:10:47.085Z,50.50
2018-04-29T11:13:12.861Z,51.60
2018-04-29T11:15:38.666Z,51.20
2018-04-29T11:18:04.473Z,51.61
2018-04-29T11:20:30.276Z,51.45
2018-04-29T11:22:56.068Z,51.33
2018-04-29T11:25:21.861Z,51.76
2018-04-29T11:27:47.680Z,51.02
2018-04-29T11:30:13.457Z,50.93
2018-04-29T11:32:39.244Z,51.83
2018-04-29T11:35:05.054Z,52.25
2018-04-29T11:37:30.838Z,51.66
2018-04-29T11:39:56.627Z,53.14
2018-04-29T11:42:22.433Z,52.38
2018-04-29T11:44:48.246Z,52.50
2018-04-29T11:47:14.020Z,52.73
2018-04-29T11:49:39.790Z,53.69
2018-04-29T11:52:05.602Z,53.86
2018-04-29T11:54:31.389Z,54.12
2018-04-29T11:56:57.166Z,53.46
2018-04-29T11:59:23.212Z,54.27
2018-04-29T12:01:49.075Z,54.41
2018-04-29T12:04:14.797Z,54.53
2018-04-29T12:06:40.595Z,54.70
2018-04-29T12:09:06.394Z,54.40
2018-04-29T12:11:32.186Z,54.03
2018-04-29T12:13:57.979Z,54.72
2018-04-29T12:16:23.840Z,54.76
2018-04-29T12:18:49.609Z,55.04
2018-04-29T12:21:15.402Z,55.30
2018-04-29T12:23:41.181Z,55.21
2018-04-29T12:26:07.259Z,54.24
2018-04-29T12:28:33.063Z,54.21
2018-04-29T12:30:58.853Z,53.79
2018-04-29T12:33:24.693Z,54.96
2018-04-29T12:35:50.472Z,55.26
2018-04-29T12:38:16.263Z,54.15
2018-04-29T12:40:42.060Z,53.49
2018-04-29T12:43:07.850Z,53.98
2018-04-29T12:45:33.673Z,53.61
2018-04-29T12:47:59.481Z,53.04
2018-04-29T12:50:25.288Z,52.67
2018-04-29T12:52:51.069Z,52.26
2018-04-29T12:55:16.873Z,52.86
2018-04-29T12:57:42.984Z,52.70
2018-04-29T13:00:08.858Z,53.16
2018-04-29T13:02:34.575Z,54.26
2018-04-29T13:05:00.375Z,55.11
2018-04-29T13:07:26.157Z,54.43
2018-04-29T13:09:51.929Z,54.43
2018-04-29T13:12:17.732Z,54.82
2018-04-29T13:14:43.505Z,55.73
2018-04-29T13:17:09.296Z,55.04
2018-04-29T13:19:35.354Z,54.95
2018-04-29T13:22:01.137Z,54.84
2018-04-29T13:24:26.909Z,55.38
2018-04-29T13:26:52.694Z,56.02
2018-04-29T13:29:18.496Z,56.25
2018-04-29T13:31:44.564Z,56.13
2018-04-29T13:34:11.085Z,56.00
2018-04-29T13:36:36.869Z,57.02
2018-04-29T13:39:02.682Z,57.28
2018-04-29T13:41:28.545Z,56.30
2018-04-29T13:43:54.324Z,56.86
2018-04-29T13:46:20.215Z,55.79
2018-04-29T13:48:46.008Z,56.25
2018-04-29T13:51:11.802Z,55.52
2018-04-29T13:53:37.978Z,53.93
2018-04-29T13:56:03.776Z,53.78
2018-04-29T13:58:29.598Z,51.99
2018-04-29T14:00:55.478Z,52.54
2018-04-29T14:03:21.346Z,52.55
2018-04-29T14:05:47.132Z,52.85
2018-04-29T14:08:12.955Z,53.32
2018-04-29T14:10:38.799Z,54.00
2018-04-29T14:13:04.556Z,54.12
2018-04-29T14:15:30.341Z,55.25
2018-04-29T14:17:56.113Z,55.91
2018-04-29T14:20:21.925Z,54.07
2018-04-29T14:22:47.707Z,54.26
2018-04-29T14:25:13.496Z,53.91
2018-04-29T14:27:39.306Z,53.24
2018-04-29T14:30:05.101Z,53.35
2018-04-29T14:32:30.892Z,52.63
2018-04-29T14:34:56.684Z,52.61
2018-04-29T14:37:22.472Z,53.39
2018-04-29T14:39:48.254Z,53.66
2018-04-29T14:42:14.071Z,53.71
2018-04-29T14:44:39.857Z,54.52
2018-04-29T14:47:05.650Z,53.90
2018-04-29T14:49:31.557Z,54.53
2018-04-29T14:51:57.293Z,54.16
2018-04-29T14:54:23.094Z,54.71
2018-04-29T14:56:48.896Z,54.31
2018-04-29T14:59:14.693Z,54.34
2018-04-29T15:01:40.475Z,54.40
2018-04-29T15:04:06.292Z,55.07
2018-04-29T15:06:32.065Z,55.09
2018-04-29T15:08:57.833Z,55.25
2018-04-29T15:11:23.631Z,55.25
2018-04-29T15:13:49.458Z,55.60
2018-04-29T15:16:15.232Z,56.08
2018-04-29T15:18:53.441Z,56.21
2018-04-29T15:21:19.237Z,56.15
2018-04-29T15:23:45.026Z,56.32
2018-04-29T15:26:10.828Z,55.56
2018-04-29T15:28:36.614Z,55.98
2018-04-29T15:31:02.420Z,57.25
2018-04-29T15:33:28.225Z,56.96
2018-04-29T15:35:53.996Z,57.57
2018-04-29T15:38:19.786Z,56.97
2018-04-29T15:40:45.656Z,57.46
2018-04-29T15:43:11.405Z,56.80
2018-04-29T15:45:37.200Z,56.09
2018-04-29T15:48:02.998Z,56.41
2018-04-29T15:50:28.781Z,57.03
2018-04-29T15:52:54.569Z,56.46
2018-04-29T15:55:20.361Z,56.74
2018-04-29T15:57:46.164Z,56.61
2018-04-29T16:00:11.970Z,56.50
2018-04-29T16:02:37.766Z,57.36
2018-04-29T16:05:03.557Z,58.33
2018-04-29T16:07:29.353Z,58.33
2018-04-29T16:09:55.145Z,58.34
2018-04-29T16:12:21.219Z,57.67
2018-04-29T16:14:47.006Z,56.83
2018-04-29T16:17:12.797Z,57.72
2018-04-29T16:19:38.618Z,57.76
2018-04-29T16:22:04.429Z,58.21
2018-04-29T16:24:30.205Z,59.75
2018-04-29T16:26:56.270Z,58.08
2018-04-29T16:29:22.056Z,58.87
2018-04-29T16:31:47.846Z,58.40
2018-04-29T16:34:13.666Z,59.64
2018-04-29T16:36:39.465Z,58.82
2018-04-29T16:39:05.243Z,58.42
2018-04-29T16:41:31.037Z,58.47
2018-04-29T16:43:56.815Z,58.26
2018-04-29T16:46:22.743Z,58.79
2018-04-29T16:48:48.561Z,59.32
2018-04-29T16:51:14.367Z,59.74
2018-04-29T16:53:40.197Z,59.82
2018-04-29T16:56:05.996Z,60.22
2018-04-29T16:58:31.769Z,59.76
2018-04-29T17:00:57.557Z,61.04
2018-04-29T17:03:23.353Z,60.54
2018-04-29T17:05:49.169Z,60.65
2018-04-29T17:08:14.993Z,60.64
2018-04-29T17:10:40.796Z,61.50
2018-04-29T17:13:06.602Z,61.35
2018-04-29T17:15:32.393Z,61.11
2018-04-29T17:17:58.183Z,61.58
2018-04-29T17:20:23.969Z,62.12
2018-04-29T17:22:49.901Z,61.83
2018-04-29T17:25:15.727Z,61.27
2018-04-29T17:27:41.573Z,61.39
2018-04-29T17:30:07.355Z,61.74
2018-04-29T17:32:33.202Z,62.20
2018-04-29T17:34:58.991Z,62.65
2018-04-29T17:37:24.795Z,62.17
2018-04-29T17:39:50.770Z,62.01
2018-04-29T17:42:16.621Z,63.09
2018-04-29T17:44:42.590Z,62.31
2018-04-29T17:47:08.384Z,63.24
2018-04-29T17:49:34.199Z,63.32
2018-04-29T17:51:59.979Z,63.48
2018-04-29T17:54:25.761Z,63.58
2018-04-29T17:56:51.796Z,64.15
2018-04-29T17:59:17.618Z,64.21
2018-04-29T18:01:43.450Z,64.91
2018-04-29T18:04:09.241Z,65.04
2018-04-29T18:06:35.031Z,65.41
2018-04-29T18:09:00.958Z,65.79
2018-04-29T18:11:26.760Z,66.69
2018-04-29T18:13:52.533Z,66.53
2018-04-29T18:16:18.464Z,66.77
2018-04-29T18:18:45.243Z,67.86
2018-04-29T18:21:11.118Z,67.31
2018-04-29T18:23:36.910Z,68.17
2018-04-29T18:26:02.753Z,68.53
2018-04-29T18:28:28.677Z,68.20
2018-04-29T18:30:54.744Z,68.14
2018-04-29T18:33:20.548Z,68.31
2018-04-29T18:35:46.385Z,68.67
2018-04-29T18:38:12.174Z,68.51
2018-04-29T18:40:37.993Z,68.59
2018-04-29T18:43:03.787Z,68.44
2018-04-29T18:45:29.557Z,68.36
2018-04-29T18:47:55.517Z,69.01
2018-04-29T18:50:21.348Z,67.92
2018-04-29T18:52:47.338Z,68.54
2018-04-29T18:55:13.194Z,68.39
2018-04-29T18:57:39.001Z,68.44
2018-04-29T19:00:04.907Z,68.24
2018-04-29T19:02:30.721Z,68.68
2018-04-29T19:04:56.980Z,69.02
2018-04-29T19:07:22.765Z,68.71
2018-04-29T19:09:48.895Z,69.27
2018-04-29T19:12:14.733Z,69.41
2018-04-29T19:14:40.519Z,69.19
2018-04-29T19:17:06.450Z,69.66
2018-04-29T19:19:32.551Z,69.68
2018-04-29T19:21:58.389Z,69.54
2018-04-29T19:24:24.223Z,69.69
2018-04-29T19:26:50.049Z,69.84
2018-04-29T19:29:16.066Z,70.00
2018-04-29T19:31:41.910Z,70.15
2018-04-29T19:34:07.693Z,70.68
2018-04-29T19:36:33.537Z,70.52
2018-04-29T19:38:59.327Z,71.03
2018-04-29T19:41:25.118Z,71.83
2018-04-29T19:43:50.942Z,72.82
2018-04-29T19:46:16.726Z,72.86
2018-04-29T19:48:42.680Z,73.39
2018-04-29T19:51:08.469Z,74.12
2018-04-29T19:53:34.311Z,74.22
2018-04-29T19:56:00.177Z,74.84
2018-04-29T19:58:25.977Z,75.31
2018-04-29T20:00:51.799Z,75.14
2018-04-29T20:03:17.597Z,76.13
2018-04-29T20:05:43.559Z,76.10
2018-04-29T20:08:09.377Z,76.42
2018-04-29T20:10:35.190Z,76.81
2018-04-29T20:13:00.994Z,76.31
2018-04-29T20:15:26.807Z,76.53
2018-04-29T20:17:52.597Z,76.67
2018-04-29T20:20:18.470Z,77.10
2018-04-29T20:22:44.282Z,77.63
2018-04-29T20:25:10.322Z,78.34
2018-04-29T20:27:36.126Z,77.38
2018-04-29T20:30:02.035Z,77.59
2018-04-29T20:35:27.997Z,77.86
2018-04-29T20:37:53.880Z,78.92
2018-04-29T20:40:19.698Z,78.64
2018-04-29T20:42:45.479Z,78.37
2018-04-29T20:45:11.361Z,80.17
2018-04-29T20:47:37.170Z,78.92
2018-04-29T20:50:02.988Z,78.91
2018-04-29T20:52:28.774Z,79.52
2018-04-29T20:54:54.580Z,80.32
2018-04-29T20:57:20.607Z,80.10
2018-04-29T20:59:46.401Z,80.08
2018-04-29T21:02:12.441Z,80.52
2018-04-29T21:04:38.292Z,80.76
2018-04-29T21:07:04.088Z,80.76
2018-04-29T21:09:29.944Z,80.67
2018-04-29T21:11:55.847Z,80.31
2018-04-29T21:14:21.653Z,80.84
2018-04-29T21:16:47.566Z,80.89
2018-04-29T21:19:13.385Z,81.06
2018-04-29T21:21:39.165Z,80.82
2018-04-29T21:24:04.938Z,81.29
2018-04-29T21:26:30.753Z,81.30
2018-04-29T21:28:56.671Z,81.26
2018-04-29T21:31:22.446Z,81.31
2018-04-29T21:33:48.449Z,82.34
2018-04-29T21:36:14.261Z,82.16
2018-04-29T21:38:40.030Z,82.13
2018-04-29T21:41:05.858Z,82.50
2018-04-29T21:43:31.637Z,82.71
2018-04-29T21:45:57.596Z,82.06
2018-04-29T21:48:23.388Z,82.13
2018-04-29T21:50:49.331Z,82.03
2018-04-29T21:53:15.132Z,82.45
2018-04-29T21:55:40.919Z,82.20
2018-04-29T21:58:06.705Z,82.28
2018-04-29T22:00:32.749Z,83.03
2018-04-29T22:02:58.548Z,82.92
2018-04-29T22:05:24.329Z,82.94
2018-04-29T22:07:50.277Z,82.98
2018-04-29T22:10:16.060Z,83.14
2018-04-29T22:12:41.996Z,83.34
2018-04-29T22:15:07.822Z,83.29
2018-04-29T22:17:33.605Z,83.37
2018-04-29T22:19:59.385Z,80.86
2018-04-29T22:22:25.182Z,82.21
2018-04-29T22:24:51.012Z,83.19
2018-04-29T22:27:16.771Z,82.98
2018-04-29T22:29:42.580Z,83.37
2018-04-29T22:32:08.374Z,82.98
2018-04-29T22:34:34.176Z,83.54
2018-04-29T22:36:59.975Z,83.63
2018-04-29T22:39:25.764Z,83.94
2018-04-29T22:41:51.558Z,84.12
2018-04-29T22:44:17.344Z,84.25
2018-04-29T22:46:43.127Z,83.88
2018-04-29T22:49:08.928Z,84.18
2018-04-29T22:51:34.707Z,85.54
2018-04-29T22:54:00.504Z,82.66
2018-04-29T22:56:26.306Z,81.74
2018-04-29T22:58:52.096Z,77.88
2018-04-29T23:01:17.937Z,77.14
2018-04-29T23:03:43.673Z,77.59
2018-04-29T23:06:09.472Z,77.72
2018-04-29T23:08:35.265Z,81.02
2018-04-29T23:11:01.037Z,82.09
2018-04-29T23:13:26.840Z,82.37
2018-04-29T23:15:52.625Z,81.88
2018-04-29T23:18:18.409Z,82.74
2018-04-29T23:20:44.194Z,82.68
2018-04-29T23:23:09.972Z,83.43
2018-04-29T23:25:35.757Z,83.60
2018-04-29T23:28:01.541Z,83.38
2018-04-29T23:30:27.328Z,82.62
2018-04-29T23:32:53.124Z,82.34
2018-04-29T23:35:18.984Z,83.32
2018-04-29T23:37:44.726Z,83.19
2018-04-29T23:40:10.507Z,82.50
2018-04-29T23:42:36.290Z,82.43
2018-04-29T23:45:02.081Z,82.41
2018-04-29T23:47:27.888Z,82.63
2018-04-29T23:49:53.646Z,82.18
2018-04-29T23:52:19.448Z,81.71
2018-04-29T23:54:45.226Z,81.60
2018-04-29T23:57:11.042Z,81.59
2018-04-29T23:59:36.839Z,81.39
